createdAt,value
2022-11-27T00:02:21.837Z,98879.41
2022-11-27T00:04:51.463Z,98878.78
2022-11-27T00:07:20.835Z,98868.97
2022-11-27T00:09:50.617Z,98857.63
2022-11-27T00:12:22.990Z,98868.09
2022-11-27T00:14:55.563Z,98867.38
2022-11-27T00:17:22.339Z,98857.47
2022-11-27T00:19:51.626Z,98854.22
2022-11-27T00:22:20.910Z,98851.22
2022-11-27T00:24:47.444Z,98837.41
2022-11-27T00:27:14.074Z,98842.91
2022-11-27T00:29:40.572Z,98848.00
2022-11-27T00:32:08.191Z,98850.31
2022-11-27T00:34:34.955Z,98825.19
2022-11-27T00:37:01.630Z,98828.63
2022-11-27T00:39:28.228Z,98829.38
2022-11-27T00:41:54.977Z,98820.09
2022-11-27T00:44:24.538Z,98803.63
2022-11-27T00:46:53.930Z,98801.00
2022-11-27T00:49:23.298Z,98797.72
2022-11-27T00:51:52.126Z,98808.84
2022-11-27T00:54:22.595Z,98813.28
2022-11-27T00:56:49.301Z,98805.13
2022-11-27T00:59:15.807Z,98813.50
2022-11-27T01:01:43.937Z,98812.78
2022-11-27T01:04:15.275Z,98821.59
2022-11-27T01:06:42.718Z,98798.03
2022-11-27T01:09:11.710Z,98812.06
2022-11-27T01:11:38.270Z,98807.69
2022-11-27T01:14:11.613Z,98824.69
2022-11-27T01:16:42.551Z,98817.06
2022-11-27T01:19:10.580Z,98821.00
2022-11-27T01:21:37.177Z,98821.09
2022-11-27T01:24:05.536Z,98821.00
2022-11-27T01:26:32.489Z,98825.19
2022-11-27T01:28:59.759Z,98824.34
2022-11-27T01:31:29.001Z,98821.72
2022-11-27T01:33:58.752Z,98816.78
2022-11-27T01:36:26.186Z,98807.41
2022-11-27T01:38:57.005Z,98804.38
2022-11-27T01:41:27.704Z,98796.81
2022-11-27T01:44:00.245Z,98787.03
2022-11-27T01:46:48.812Z,98788.72
2022-11-27T01:49:32.735Z,98794.28
2022-11-27T01:52:05.218Z,98802.09
2022-11-27T01:54:41.587Z,98792.28
2022-11-27T01:57:13.479Z,98788.56
2022-11-27T01:59:40.892Z,98786.22
2022-11-27T02:02:07.479Z,98784.78
2022-11-27T02:04:35.156Z,98777.34
2022-11-27T02:07:01.836Z,98775.44
2022-11-27T02:09:29.845Z,98762.91
2022-11-27T02:12:03.842Z,98755.69
2022-11-27T02:14:36.339Z,98764.22
2022-11-27T02:17:23.486Z,98753.22
2022-11-27T02:19:59.591Z,98743.78
2022-11-27T02:22:41.193Z,98732.25
2022-11-27T02:25:30.288Z,98731.00
2022-11-27T02:28:21.609Z,98731.69
2022-11-27T02:30:57.298Z,98720.16
2022-11-27T02:33:27.476Z,98714.03
2022-11-27T02:36:01.100Z,98692.56
2022-11-27T02:38:37.991Z,98694.66
2022-11-27T02:41:19.287Z,98702.88
2022-11-27T02:43:48.669Z,98712.28
2022-11-27T02:46:17.547Z,98706.91
2022-11-27T02:48:48.443Z,98705.16
2022-11-27T02:51:17.956Z,98707.09
2022-11-27T02:53:50.828Z,98704.84
2022-11-27T02:56:22.121Z,98707.22
2022-11-27T02:58:51.103Z,98703.84
2022-11-27T03:01:20.478Z,98696.81
2022-11-27T03:03:53.568Z,98692.97
2022-11-27T03:06:31.869Z,98694.50
2022-11-27T03:09:04.216Z,98689.13
2022-11-27T03:11:30.984Z,98693.34
2022-11-27T03:14:01.694Z,98698.47
2022-11-27T03:16:40.877Z,98698.22
2022-11-27T03:19:23.071Z,98700.75
2022-11-27T03:22:01.048Z,98685.47
2022-11-27T03:24:30.311Z,98687.56
2022-11-27T03:27:00.655Z,98684.09
2022-11-27T03:29:49.891Z,98688.66
2022-11-27T03:32:16.741Z,98699.75
2022-11-27T03:34:44.578Z,98689.94
2022-11-27T03:37:11.259Z,98675.50
2022-11-27T03:39:38.190Z,98676.09
2022-11-27T03:42:26.994Z,98670.81
2022-11-27T03:45:21.106Z,98673.06
2022-11-27T03:48:11.565Z,98681.16
2022-11-27T03:50:38.022Z,98678.16
2022-11-27T03:53:19.047Z,98686.38
2022-11-27T03:56:12.099Z,98685.75
2022-11-27T03:58:49.155Z,98673.94
2022-11-27T04:01:19.671Z,98670.19
2022-11-27T04:03:46.260Z,98668.88
2022-11-27T04:06:12.868Z,98668.38
2022-11-27T04:08:40.287Z,98668.97
2022-11-27T04:11:06.975Z,98654.38
2022-11-27T04:13:33.442Z,98653.56
2022-11-27T04:16:04.106Z,98644.53
2022-11-27T04:18:35.216Z,98651.13
2022-11-27T04:21:04.914Z,98646.25
2022-11-27T04:23:35.744Z,98641.59
2022-11-27T04:26:06.280Z,98640.53
2022-11-27T04:28:35.840Z,98648.50
2022-11-27T04:31:06.183Z,98647.19
2022-11-27T04:33:35.925Z,98633.78
2022-11-27T04:36:06.290Z,98642.84
2022-11-27T04:38:34.260Z,98641.84
2022-11-27T04:41:03.413Z,98620.97
2022-11-27T04:43:29.919Z,98618.84
2022-11-27T04:45:56.527Z,98610.59
2022-11-27T04:48:23.051Z,98621.84
2022-11-27T04:50:49.558Z,98620.50
2022-11-27T04:53:16.111Z,98633.84
2022-11-27T04:55:42.653Z,98627.91
2022-11-27T04:58:09.181Z,98640.63
2022-11-27T05:00:35.787Z,98647.22
2022-11-27T05:03:02.505Z,98656.69
2022-11-27T05:05:29.726Z,98641.91
2022-11-27T05:07:56.316Z,98643.31
2022-11-27T05:10:23.074Z,98616.88
2022-11-27T05:12:49.577Z,98622.69
2022-11-27T05:15:16.179Z,98629.53
2022-11-27T05:17:42.678Z,98617.25
2022-11-27T05:20:09.545Z,98612.09
2022-11-27T05:22:36.710Z,98619.13
2022-11-27T05:25:03.414Z,98630.00
2022-11-27T05:27:30.199Z,98623.91
2022-11-27T05:29:56.775Z,98619.22
2022-11-27T05:32:23.257Z,98621.09
2022-11-27T05:34:49.881Z,98624.34
2022-11-27T05:37:19.650Z,98606.66
2022-11-27T05:39:46.304Z,98616.38
2022-11-27T05:42:12.821Z,98608.59
2022-11-27T05:44:39.583Z,98594.63
2022-11-27T05:47:09.151Z,98588.56
2022-11-27T05:49:39.392Z,98568.28
2022-11-27T05:52:07.942Z,98558.97
2022-11-27T05:54:34.449Z,98554.19
2022-11-27T05:57:01.002Z,98549.56
2022-11-27T05:59:27.799Z,98544.31
2022-11-27T06:01:54.393Z,98556.94
2022-11-27T06:04:20.934Z,98543.72
2022-11-27T06:06:47.431Z,98547.88
2022-11-27T06:09:13.935Z,98542.53
2022-11-27T06:11:40.901Z,98546.22
2022-11-27T06:14:09.271Z,98558.84
2022-11-27T06:16:37.413Z,98559.19
2022-11-27T06:19:04.060Z,98565.03
2022-11-27T06:21:30.567Z,98569.00
2022-11-27T06:23:57.259Z,98567.34
2022-11-27T06:26:29.514Z,98573.66
2022-11-27T06:28:57.593Z,98563.75
2022-11-27T06:31:27.444Z,98576.28
2022-11-27T06:33:55.651Z,98592.41
2022-11-27T06:36:28.118Z,98603.97
2022-11-27T06:38:54.622Z,98597.66
2022-11-27T06:41:24.674Z,98590.75
2022-11-27T06:43:51.293Z,98582.53
2022-11-27T06:46:19.370Z,98594.13
2022-11-27T06:48:47.840Z,98601.06
2022-11-27T06:51:25.531Z,98610.22
2022-11-27T06:53:52.962Z,98612.97
2022-11-27T06:56:25.353Z,98614.03
2022-11-27T06:58:54.305Z,98619.88
2022-11-27T07:01:22.045Z,98629.81
2022-11-27T07:03:48.885Z,98607.50
2022-11-27T07:06:19.243Z,98602.38
2022-11-27T07:08:45.799Z,98602.38
2022-11-27T07:11:15.414Z,98593.16
2022-11-27T07:13:45.360Z,98584.94
2022-11-27T07:16:16.117Z,98573.59
2022-11-27T07:18:48.285Z,98558.75
2022-11-27T07:21:15.252Z,98554.44
2022-11-27T07:23:45.435Z,98557.81
2022-11-27T07:26:22.057Z,98549.34
2022-11-27T07:28:49.087Z,98554.47
2022-11-27T07:31:21.643Z,98557.34
2022-11-27T07:33:48.629Z,98543.88
2022-11-27T07:36:16.599Z,98544.13
2022-11-27T07:38:44.676Z,98533.34
2022-11-27T07:41:15.515Z,98539.66
2022-11-27T07:43:46.187Z,98540.25
2022-11-27T07:46:20.648Z,98538.50
2022-11-27T07:48:47.473Z,98537.31
2022-11-27T07:51:16.363Z,98547.56
2022-11-27T07:53:44.979Z,98536.09
2022-11-27T07:56:16.008Z,98544.94
2022-11-27T07:58:44.730Z,98543.13
2022-11-27T08:01:16.258Z,98549.25
2022-11-27T08:03:44.495Z,98536.72
2022-11-27T08:06:21.834Z,98530.63
2022-11-27T08:08:49.278Z,98536.09
2022-11-27T08:11:33.108Z,98531.44
2022-11-27T08:14:05.670Z,98529.63
2022-11-27T08:16:33.807Z,98529.25
2022-11-27T08:19:00.791Z,98535.47
2022-11-27T08:21:29.561Z,98528.56
2022-11-27T08:23:57.265Z,98526.97
2022-11-27T08:26:24.452Z,98538.66
2022-11-27T08:28:59.429Z,98531.84
2022-11-27T08:31:26.435Z,98540.69
2022-11-27T08:33:53.307Z,98525.72
2022-11-27T08:36:20.513Z,98536.25
2022-11-27T08:38:47.499Z,98538.03
2022-11-27T08:41:16.260Z,98539.28
2022-11-27T08:43:45.780Z,98535.75
2022-11-27T08:46:15.386Z,98529.78
2022-11-27T08:48:42.262Z,98530.56
2022-11-27T08:51:16.871Z,98527.81
2022-11-27T08:53:46.747Z,98530.44
2022-11-27T08:56:21.827Z,98521.34
2022-11-27T08:58:48.616Z,98518.31
2022-11-27T09:01:21.943Z,98510.78
2022-11-27T09:03:49.297Z,98499.25
2022-11-27T09:06:24.867Z,98486.59
2022-11-27T09:08:52.070Z,98492.47
2022-11-27T09:11:20.709Z,98491.31
2022-11-27T09:13:48.205Z,98478.03
2022-11-27T09:16:19.235Z,98470.25
2022-11-27T09:18:51.806Z,98465.22
2022-11-27T09:21:27.257Z,98475.81
2022-11-27T09:24:01.872Z,98475.72
2022-11-27T09:26:29.597Z,98474.59
2022-11-27T09:28:58.525Z,98463.81
2022-11-27T09:31:26.257Z,98466.19
2022-11-27T09:33:53.171Z,98451.53
2022-11-27T09:36:23.290Z,98454.66
2022-11-27T09:38:50.288Z,98453.63
2022-11-27T09:41:39.483Z,98454.50
2022-11-27T09:44:29.428Z,98458.59
2022-11-27T09:46:59.660Z,98465.84
2022-11-27T09:49:35.601Z,98458.19
2022-11-27T09:52:05.133Z,98439.09
2022-11-27T09:54:41.152Z,98423.63
2022-11-27T09:57:16.530Z,98405.59
2022-11-27T09:59:50.734Z,98420.44
2022-11-27T10:02:25.291Z,98419.00
2022-11-27T10:05:12.837Z,98410.63
2022-11-27T10:08:06.039Z,98409.63
2022-11-27T10:10:33.304Z,98415.56
2022-11-27T10:13:21.156Z,98425.16
2022-11-27T10:16:06.055Z,98417.66
2022-11-27T10:18:40.690Z,98413.47
2022-11-27T10:21:22.217Z,98416.13
2022-11-27T10:24:04.631Z,98413.31
2022-11-27T10:26:37.108Z,98404.22
2022-11-27T10:29:17.665Z,98399.72
2022-11-27T10:31:47.328Z,98403.09
2022-11-27T10:34:26.253Z,98406.38
2022-11-27T10:36:56.269Z,98387.88
2022-11-27T10:39:32.939Z,98387.06
2022-11-27T10:42:10.790Z,98387.59
2022-11-27T10:44:55.366Z,98385.81
2022-11-27T10:47:23.964Z,98374.03
2022-11-27T10:49:50.473Z,98366.25
2022-11-27T10:52:19.050Z,98369.06
2022-11-27T10:55:00.286Z,98364.13
2022-11-27T10:57:47.672Z,98360.00
2022-11-27T11:00:24.974Z,98354.00
2022-11-27T11:03:02.850Z,98356.13
2022-11-27T11:05:41.424Z,98337.78
2022-11-27T11:08:19.960Z,98336.94
2022-11-27T11:10:57.417Z,98323.59
2022-11-27T11:13:29.745Z,98323.56
2022-11-27T11:16:25.817Z,98326.16
2022-11-27T11:18:55.971Z,98319.41
2022-11-27T11:21:35.519Z,98316.44
2022-11-27T11:24:02.119Z,98318.19
2022-11-27T11:26:34.077Z,98321.03
2022-11-27T11:29:06.188Z,98310.66
2022-11-27T11:31:38.195Z,98297.00
2022-11-27T11:34:22.651Z,98296.59
2022-11-27T11:37:07.891Z,98285.09
2022-11-27T11:39:59.618Z,98282.19
2022-11-27T11:42:32.173Z,98272.25
2022-11-27T11:45:05.782Z,98264.91
2022-11-27T11:47:32.669Z,98268.19
2022-11-27T11:49:59.492Z,98261.41
2022-11-27T11:52:39.070Z,98252.94
2022-11-27T11:55:27.750Z,98241.56
2022-11-27T11:58:20.121Z,98237.13
2022-11-27T12:01:19.464Z,98233.19
2022-11-27T12:04:15.854Z,98226.63
2022-11-27T12:07:17.673Z,98226.38
2022-11-27T12:09:46.227Z,98221.13
2022-11-27T12:12:57.046Z,98209.13
2022-11-27T12:15:45.663Z,98195.47
2022-11-27T12:18:21.357Z,98202.03
2022-11-27T12:21:17.679Z,98198.34
2022-11-27T12:24:05.228Z,98199.19
2022-11-27T12:26:34.763Z,98196.19
2022-11-27T12:29:26.234Z,98183.81
2022-11-27T12:32:15.276Z,98178.56
2022-11-27T12:35:02.491Z,98170.44
2022-11-27T12:37:37.348Z,98161.63
2022-11-27T12:40:31.692Z,98166.25
2022-11-27T12:43:26.916Z,98173.84
2022-11-27T12:45:59.681Z,98165.59
2022-11-27T12:48:38.872Z,98160.53
2022-11-27T12:51:19.307Z,98153.00
2022-11-27T12:54:10.897Z,98143.44
2022-11-27T12:56:42.754Z,98147.03
2022-11-27T12:59:22.799Z,98134.25
2022-11-27T13:02:19.745Z,98123.94
2022-11-27T13:04:55.934Z,98122.25
2022-11-27T13:07:38.774Z,98114.22
2022-11-27T13:10:30.127Z,98110.28
2022-11-27T13:13:09.647Z,98101.59
2022-11-27T13:15:46.998Z,98106.28
2022-11-27T13:18:35.349Z,98105.31
2022-11-27T13:21:09.232Z,98105.94
2022-11-27T13:23:35.874Z,98094.97
2022-11-27T13:26:07.365Z,98085.94
2022-11-27T13:29:00.102Z,98087.38
2022-11-27T13:31:49.780Z,98081.22
2022-11-27T13:34:23.822Z,98081.94
2022-11-27T13:37:03.519Z,98076.44
2022-11-27T13:39:35.641Z,98084.72
2022-11-27T13:42:06.623Z,98083.88
2022-11-27T13:44:37.926Z,98070.59
2022-11-27T13:47:16.957Z,98068.38
2022-11-27T13:49:43.685Z,98065.03
2022-11-27T13:52:12.321Z,98071.84
2022-11-27T13:54:39.423Z,98060.81
2022-11-27T13:57:19.724Z,98047.47
2022-11-27T14:00:06.839Z,98042.25
2022-11-27T14:02:40.695Z,98037.56
2022-11-27T14:05:07.645Z,98033.44
2022-11-27T14:07:47.962Z,98037.63
2022-11-27T14:10:24.404Z,98036.28
2022-11-27T14:13:02.699Z,98022.28
2022-11-27T14:15:31.700Z,98004.44
2022-11-27T14:18:27.361Z,98001.78
2022-11-27T14:21:03.225Z,98005.34
2022-11-27T14:23:31.700Z,98002.50
2022-11-27T14:26:24.867Z,97992.00
2022-11-27T14:28:55.958Z,97996.97
2022-11-27T14:31:24.077Z,97989.25
2022-11-27T14:34:14.096Z,97984.44
2022-11-27T14:36:37.214Z,97979.25
2022-11-27T14:39:07.821Z,97970.69
2022-11-27T14:41:36.879Z,97970.00
2022-11-27T14:44:06.731Z,97972.69
2022-11-27T14:46:39.373Z,97960.34
2022-11-27T14:49:05.955Z,97971.13
2022-11-27T14:51:35.219Z,97969.09
2022-11-27T14:54:12.658Z,97969.84
2022-11-27T14:56:44.196Z,97976.81
2022-11-27T14:59:19.554Z,97963.34
2022-11-27T15:02:05.851Z,97966.63
2022-11-27T15:04:37.459Z,97951.03
2022-11-27T15:07:13.273Z,97948.13
2022-11-27T15:09:46.738Z,97951.97
2022-11-27T15:12:42.461Z,97947.66
2022-11-27T15:15:19.038Z,97948.09
2022-11-27T15:17:53.392Z,97949.66
2022-11-27T15:20:33.408Z,97939.97
2022-11-27T15:23:00.611Z,97939.78
2022-11-27T15:25:36.644Z,97942.22
2022-11-27T15:28:19.525Z,97944.50
2022-11-27T15:30:48.265Z,97937.88
2022-11-27T15:33:35.132Z,97934.38
2022-11-27T15:36:22.294Z,97921.34
2022-11-27T15:38:52.309Z,97927.69
2022-11-27T15:41:24.112Z,97925.41
2022-11-27T15:43:50.648Z,97930.09
2022-11-27T15:46:35.271Z,97917.03
2022-11-27T15:49:01.769Z,97916.75
2022-11-27T15:51:29.155Z,97915.16
2022-11-27T15:53:55.697Z,97908.09
2022-11-27T15:56:22.831Z,97903.34
2022-11-27T15:58:49.397Z,97901.09
2022-11-27T16:01:17.264Z,97904.28
2022-11-27T16:03:43.874Z,97897.03
2022-11-27T16:06:10.473Z,97889.63
2022-11-27T16:08:37.056Z,97885.66
2022-11-27T16:11:07.178Z,97889.59
2022-11-27T16:13:34.142Z,97892.59
2022-11-27T16:16:02.479Z,97897.41
2022-11-27T16:18:29.764Z,97895.41
2022-11-27T16:20:56.379Z,97892.16
2022-11-27T16:23:22.907Z,97892.97
2022-11-27T16:25:49.478Z,97894.81
2022-11-27T16:28:17.302Z,97897.94
2022-11-27T16:30:44.260Z,97881.56
2022-11-27T16:33:10.965Z,97883.06
2022-11-27T16:35:37.567Z,97871.16
2022-11-27T16:38:04.067Z,97872.63
2022-11-27T16:40:30.668Z,97864.38
2022-11-27T16:42:57.169Z,97859.94
2022-11-27T16:45:23.826Z,97860.72
2022-11-27T16:47:50.487Z,97863.56
2022-11-27T16:50:18.754Z,97855.28
2022-11-27T16:52:47.073Z,97850.00
2022-11-27T16:55:22.369Z,97847.50
2022-11-27T16:57:49.237Z,97843.88
2022-11-27T17:00:19.003Z,97845.19
2022-11-27T17:02:45.642Z,97834.91
2022-11-27T17:05:12.186Z,97828.44
2022-11-27T17:07:38.941Z,97834.22
2022-11-27T17:10:06.101Z,97821.47
2022-11-27T17:12:33.353Z,97827.53
2022-11-27T17:14:59.858Z,97817.09
2022-11-27T17:17:26.691Z,97816.03
2022-11-27T17:20:00.161Z,97805.78
2022-11-27T17:22:27.302Z,97805.72
2022-11-27T17:24:55.296Z,97814.25
2022-11-27T17:27:22.055Z,97804.75
2022-11-27T17:29:49.565Z,97815.41
2022-11-27T17:32:18.258Z,97807.56
2022-11-27T17:34:45.493Z,97807.06
2022-11-27T17:37:12.566Z,97803.06
2022-11-27T17:39:40.850Z,97797.81
2022-11-27T17:42:12.813Z,97796.56
2022-11-27T17:44:40.494Z,97792.72
2022-11-27T17:47:07.100Z,97788.34
2022-11-27T17:49:33.869Z,97786.41
2022-11-27T17:52:06.014Z,97774.97
2022-11-27T17:54:33.600Z,97781.94
2022-11-27T17:57:00.204Z,97774.81
2022-11-27T17:59:26.733Z,97780.56
2022-11-27T18:01:53.413Z,97779.53
2022-11-27T18:04:24.196Z,97777.34
2022-11-27T18:06:50.920Z,97768.63
2022-11-27T18:09:20.204Z,97766.28
2022-11-27T18:11:46.856Z,97757.63
2022-11-27T18:14:13.944Z,97761.66
2022-11-27T18:16:40.786Z,97759.75
2022-11-27T18:19:11.282Z,97754.16
2022-11-27T18:21:38.657Z,97752.09
2022-11-27T18:24:23.906Z,97742.75
2022-11-27T18:27:08.123Z,97739.44
2022-11-27T18:29:41.588Z,97747.59
2022-11-27T18:32:09.341Z,97739.84
2022-11-27T18:34:36.268Z,97721.88
2022-11-27T18:37:04.366Z,97730.41
2022-11-27T18:39:31.910Z,97727.13
2022-11-27T18:41:59.032Z,97725.06
2022-11-27T18:44:27.003Z,97735.69
2022-11-27T18:46:53.558Z,97738.59
2022-11-27T18:49:24.374Z,97734.09
2022-11-27T18:51:55.000Z,97712.06
2022-11-27T18:54:24.302Z,97719.69
2022-11-27T18:56:53.732Z,97725.31
2022-11-27T18:59:21.917Z,97719.22
2022-11-27T19:01:51.364Z,97727.50
2022-11-27T19:04:17.967Z,97724.84
2022-11-27T19:06:44.662Z,97721.47
2022-11-27T19:09:14.519Z,97726.25
2022-11-27T19:11:42.087Z,97734.84
2022-11-27T19:14:11.438Z,97730.63
2022-11-27T19:16:47.417Z,97737.84
2022-11-27T19:22:07.884Z,97740.50
2022-11-27T19:24:34.575Z,97753.72
2022-11-27T19:27:01.321Z,97741.91
2022-11-27T19:29:27.892Z,97736.25
2022-11-27T19:31:57.626Z,97755.84
2022-11-27T19:34:24.393Z,97742.63
2022-11-27T19:36:53.777Z,97741.50
2022-11-27T19:39:22.682Z,97745.16
2022-11-27T19:41:49.398Z,97738.69
2022-11-27T19:44:17.527Z,97736.44
2022-11-27T19:46:45.181Z,97739.81
2022-11-27T19:49:18.735Z,97745.66
2022-11-27T19:51:46.053Z,97739.16
2022-11-27T19:54:13.701Z,97748.72
2022-11-27T19:56:42.487Z,97731.72
2022-11-27T19:59:12.489Z,97737.28
2022-11-27T20:01:40.445Z,97747.25
2022-11-27T20:04:07.855Z,97752.19
2022-11-27T20:06:34.453Z,97752.00
2022-11-27T20:09:03.962Z,97736.53
2022-11-27T20:11:34.946Z,97749.47
2022-11-27T20:14:04.291Z,97752.75
2022-11-27T20:16:32.006Z,97762.47
2022-11-27T20:18:58.736Z,97758.56
2022-11-27T20:21:26.160Z,97758.94
2022-11-27T20:23:55.116Z,97761.13
2022-11-27T20:26:25.064Z,97762.28
2022-11-27T20:28:56.244Z,97759.63
2022-11-27T20:31:37.575Z,97765.56
2022-11-27T20:34:05.918Z,97772.19
2022-11-27T20:36:34.148Z,97783.84
2022-11-27T20:39:01.336Z,97792.59
2022-11-27T20:41:28.256Z,97779.66
2022-11-27T20:44:00.432Z,97783.34
2022-11-27T20:46:27.623Z,97791.19
2022-11-27T20:49:01.380Z,97790.75
2022-11-27T20:51:34.441Z,97797.41
2022-11-27T20:54:02.723Z,97789.66
2022-11-27T20:56:30.971Z,97793.59
2022-11-27T20:58:58.631Z,97797.06
2022-11-27T21:01:30.949Z,97791.50
2022-11-27T21:04:00.371Z,97792.19
2022-11-27T21:06:29.841Z,97805.94
2022-11-27T21:08:59.285Z,97802.47
2022-11-27T21:11:28.386Z,97813.09
2022-11-27T21:14:00.452Z,97808.28
2022-11-27T21:16:29.329Z,97816.25
2022-11-27T21:18:58.925Z,97818.41
2022-11-27T21:21:26.073Z,97813.09
2022-11-27T21:23:54.849Z,97809.63
2022-11-27T21:26:21.772Z,97806.19
2022-11-27T21:28:50.243Z,97820.41
2022-11-27T21:31:19.576Z,97818.41
2022-11-27T21:33:51.727Z,97816.91
2022-11-27T21:36:20.047Z,97816.75
2022-11-27T21:38:46.997Z,97820.72
2022-11-27T21:41:14.024Z,97812.63
2022-11-27T21:43:41.332Z,97815.94
2022-11-27T21:46:08.648Z,97808.94
2022-11-27T21:48:35.358Z,97806.63
2022-11-27T21:51:03.453Z,97813.06
2022-11-27T21:53:31.094Z,97806.44
2022-11-27T21:55:57.914Z,97802.19
2022-11-27T21:58:26.529Z,97785.81
2022-11-27T22:00:53.165Z,97791.78
2022-11-27T22:03:19.691Z,97785.50
2022-11-27T22:05:46.241Z,97781.88
2022-11-27T22:10:58.086Z,97778.06
2022-11-27T22:13:27.303Z,97784.19
2022-11-27T22:15:54.254Z,97780.72
2022-11-27T22:18:21.081Z,97772.91
2022-11-27T22:20:47.920Z,97767.47
2022-11-27T22:23:14.715Z,97763.09
2022-11-27T22:25:41.542Z,97769.41
2022-11-27T22:28:08.300Z,97761.63
2022-11-27T22:30:35.323Z,97772.91
2022-11-27T22:33:02.153Z,97772.38
2022-11-27T22:35:29.435Z,97763.66
2022-11-27T22:37:57.089Z,97770.13
2022-11-27T22:40:24.041Z,97759.63
2022-11-27T22:42:50.575Z,97769.41
2022-11-27T22:45:17.251Z,97769.56
2022-11-27T22:47:43.800Z,97767.28
2022-11-27T22:50:10.567Z,97759.16
2022-11-27T22:52:37.078Z,97766.31
2022-11-27T22:55:04.089Z,97765.97
2022-11-27T22:57:30.594Z,97765.63
2022-11-27T22:59:57.203Z,97759.16
2022-11-27T23:02:23.787Z,97762.63
2022-11-27T23:04:50.328Z,97756.34
2022-11-27T23:07:21.024Z,97757.19
2022-11-27T23:09:50.279Z,97755.97
2022-11-27T23:12:16.844Z,97750.19
2022-11-27T23:14:43.451Z,97748.66
2022-11-27T23:17:10.215Z,97749.97
2022-11-27T23:19:36.846Z,97749.63
2022-11-27T23:22:03.437Z,97755.91
2022-11-27T23:24:32.906Z,97760.78
2022-11-27T23:26:59.614Z,97754.81
2022-11-27T23:29:26.213Z,97755.84
2022-11-27T23:31:52.745Z,97758.31
2022-11-27T23:34:19.371Z,97763.91
2022-11-27T23:36:45.944Z,97775.69
2022-11-27T23:39:13.929Z,97779.47
2022-11-27T23:41:40.870Z,97769.22
2022-11-27T23:44:07.815Z,97774.84
2022-11-27T23:46:34.413Z,97771.50
2022-11-27T23:49:03.562Z,97778.63
2022-11-27T23:51:32.574Z,97765.59
2022-11-27T23:54:02.395Z,97774.84
2022-11-27T23:56:34.416Z,97771.41
2022-11-27T23:59:01.233Z,97763.22
